Time;durP1;ratioP1;P1;durP2;ratioP2;P2;SDS_P1;SDS_P2;PMS_P1;PMS_P2;Temp;Humidity;BMP_temperature;BMP_pressure;BME280_temperature;BME280_humidity;BME280_pressure;Samples;Min_cycle;Max_cycle;Signal;HPM_P1;HPM_P2
2022/08/27 00:01:15;;;;;;;3.28;1.60;;;;;;;;;;4990235;28;20219;-76
2022/08/27 00:03:42;;;;;;;3.63;1.88;;;;;;;;;;4978294;28;20966;-75
2022/08/27 00:06:07;;;;;;;4.22;2.25;;;;;;;;;;4983772;28;20631;-75
2022/08/27 00:08:33;;;;;;;2.90;1.75;;;;;;;;;;4986397;28;20171;-76
2022/08/27 00:10:58;;;;;;;4.45;2.72;;;;;;;;;;4987782;28;20211;-75
2022/08/27 00:13:23;;;;;;;4.60;2.25;;;;;;;;;;4993639;28;20254;-75
2022/08/27 00:15:48;;;;;;;2.78;2.35;;;;;;;;;;4993285;28;20211;-75
2022/08/27 00:18:13;;;;;;;2.63;1.67;;;;;;;;;;4992164;28;20263;-76
2022/08/27 00:20:39;;;;;;;2.13;1.75;;;;;;;;;;4992783;28;20215;-76
2022/08/27 00:23:04;;;;;;;5.23;1.97;;;;;;;;;;4992193;28;20274;-75
2022/08/27 00:25:29;;;;;;;4.18;1.70;;;;;;;;;;4992977;28;20430;-76
2022/08/27 00:27:54;;;;;;;3.60;1.60;;;;;;;;;;4986894;28;20230;-76
2022/08/27 00:30:21;;;;;;;3.83;2.15;;;;;;;;;;4990539;28;20186;-76
2022/08/27 00:32:46;;;;;;;4.82;2.20;;;;;;;;;;4999688;28;20325;-76
2022/08/27 00:35:13;;;;;;;4.40;1.70;;;;;;;;;;4992944;28;20650;-76
2022/08/27 00:37:38;;;;;;;3.80;1.75;;;;;;;;;;4993009;28;20506;-75
2022/08/27 00:40:05;;;;;;;3.83;1.92;;;;;;;;;;4991579;28;20675;-76
2022/08/27 00:42:30;;;;;;;6.45;1.90;;;;;;;;;;4990308;28;20723;-76
2022/08/27 00:44:55;;;;;;;2.05;1.60;;;;;;;;;;4984253;28;20218;-76
2022/08/27 00:47:22;;;;;;;4.68;1.65;;;;;;;;;;4987361;28;20725;-76
2022/08/27 00:50:07;;;;;;;2.30;1.52;;;;;;;;;;4986418;28;20650;-76
2022/08/27 00:52:35;;;;;;;2.92;1.65;;;;;;;;;;4991353;28;20214;-74
2022/08/27 00:55:13;;;;;;;2.85;1.60;;;;;;;;;;4991051;28;20175;-76
2022/08/27 00:57:39;;;;;;;4.45;2.00;;;;;;;;;;4991529;28;20240;-74
2022/08/27 01:00:07;;;;;;;4.28;1.60;;;;;;;;;;4991659;28;20557;-76
2022/08/27 01:02:32;;;;;;;3.83;1.90;;;;;;;;;;4988096;28;20208;-76
2022/08/27 01:05:06;;;;;;;5.93;1.65;;;;;;;;;;4990492;28;20207;-76
2022/08/27 01:07:33;;;;;;;5.03;1.90;;;;;;;;;;4989974;28;20207;-76
2022/08/27 01:10:00;;;;;;;5.47;2.22;;;;;;;;;;4992217;28;20176;-76
2022/08/27 01:12:25;;;;;;;6.25;2.72;;;;;;;;;;4989091;28;20211;-76
2022/08/27 01:14:51;;;;;;;2.83;2.10;;;;;;;;;;4991046;28;20558;-75
2022/08/27 01:17:16;;;;;;;6.00;2.78;;;;;;;;;;4986421;28;20176;-75
2022/08/27 01:19:47;;;;;;;2.47;1.80;;;;;;;;;;4992147;28;20487;-76
2022/08/27 01:22:31;;;;;;;4.85;2.65;;;;;;;;;;5005290;28;20452;-75
2022/08/27 01:24:58;;;;;;;5.30;2.50;;;;;;;;;;4990398;28;20267;-75
2022/08/27 01:27:25;;;;;;;3.72;2.53;;;;;;;;;;4989904;28;20215;-75
2022/08/27 01:29:50;;;;;;;7.30;2.80;;;;;;;;;;4991348;28;20175;-75
2022/08/27 01:32:18;;;;;;;3.80;2.50;;;;;;;;;;4989839;28;20203;-75
2022/08/27 01:34:43;;;;;;;5.65;2.38;;;;;;;;;;4982239;28;20172;-75
2022/08/27 01:37:09;;;;;;;6.10;2.95;;;;;;;;;;4990879;28;20179;-75
2022/08/27 01:39:35;;;;;;;4.15;2.85;;;;;;;;;;4990222;28;20188;-75
2022/08/27 01:42:03;;;;;;;5.72;2.70;;;;;;;;;;4990619;28;20240;-75
2022/08/27 01:44:28;;;;;;;4.18;2.20;;;;;;;;;;4985984;28;20658;-75
2022/08/27 01:46:53;;;;;;;3.75;2.67;;;;;;;;;;4990232;28;20200;-75
2022/08/27 01:49:18;;;;;;;2.50;2.28;;;;;;;;;;4989747;28;20222;-75
2022/08/27 01:51:43;;;;;;;3.25;2.28;;;;;;;;;;4989165;28;20198;-75
2022/08/27 01:54:09;;;;;;;3.67;2.60;;;;;;;;;;4984253;28;20548;-75
2022/08/27 01:56:34;;;;;;;5.88;2.30;;;;;;;;;;4988377;28;20637;-75
2022/08/27 01:59:00;;;;;;;3.80;2.85;;;;;;;;;;4990628;28;20199;-76
2022/08/27 02:01:25;;;;;;;4.75;2.45;;;;;;;;;;4990698;28;20195;-76
2022/08/27 02:03:50;;;;;;;5.82;2.70;;;;;;;;;;4989939;28;20569;-76
2022/08/27 02:06:15;;;;;;;3.60;2.40;;;;;;;;;;4988436;28;20653;-76
2022/08/27 02:08:40;;;;;;;5.10;2.60;;;;;;;;;;4989963;28;20167;-76
2022/08/27 02:11:07;;;;;;;3.15;2.33;;;;;;;;;;4990896;28;20194;-76
2022/08/27 02:13:32;;;;;;;3.13;2.30;;;;;;;;;;4991084;28;20202;-75
2022/08/27 02:15:57;;;;;;;5.10;2.85;;;;;;;;;;4995165;28;20183;-75
2022/08/27 02:18:22;;;;;;;6.05;2.65;;;;;;;;;;4992600;28;20274;-75
2022/08/27 02:20:48;;;;;;;4.93;2.25;;;;;;;;;;4992709;28;20183;-75
2022/08/27 02:23:14;;;;;;;6.20;3.50;;;;;;;;;;4995046;28;20222;-75
2022/08/27 02:25:40;;;;;;;7.20;3.15;;;;;;;;;;4992883;28;20184;-76
2022/08/27 02:28:06;;;;;;;3.70;2.50;;;;;;;;;;4988122;28;20179;-75
2022/08/27 02:30:31;;;;;;;3.08;2.33;;;;;;;;;;4994818;28;20250;-75
2022/08/27 02:32:59;;;;;;;3.28;2.55;;;;;;;;;;4991323;28;20203;-76
2022/08/27 02:35:24;;;;;;;3.55;2.58;;;;;;;;;;4994458;28;20187;-76
2022/08/27 02:37:50;;;;;;;5.15;2.30;;;;;;;;;;4993425;28;20583;-76
2022/08/27 02:40:17;;;;;;;3.20;2.55;;;;;;;;;;4993686;28;20600;-75
2022/08/27 02:42:45;;;;;;;5.75;2.53;;;;;;;;;;4993741;28;20255;-75
2022/08/27 02:45:11;;;;;;;3.55;2.58;;;;;;;;;;4990118;28;20183;-75
2022/08/27 02:47:37;;;;;;;2.97;2.45;;;;;;;;;;4992187;28;20208;-75
2022/08/27 02:50:02;;;;;;;2.47;2.25;;;;;;;;;;4994240;28;20529;-75
2022/08/27 02:52:28;;;;;;;3.03;2.45;;;;;;;;;;4991731;28;20196;-75
2022/08/27 02:54:54;;;;;;;4.13;2.35;;;;;;;;;;4993686;28;20230;-75
2022/08/27 02:57:19;;;;;;;3.33;2.40;;;;;;;;;;4993734;28;20191;-75
2022/08/27 02:59:44;;;;;;;5.85;2.95;;;;;;;;;;4994501;28;20642;-75
2022/08/27 03:02:09;;;;;;;3.92;2.20;;;;;;;;;;4987900;28;20204;-75
2022/08/27 03:04:34;;;;;;;4.00;2.85;;;;;;;;;;4986794;28;20200;-75
2022/08/27 03:07:00;;;;;;;3.55;2.33;;;;;;;;;;4993487;28;20210;-75
2022/08/27 03:09:25;;;;;;;5.35;2.80;;;;;;;;;;4991124;28;20210;-74
2022/08/27 03:11:50;;;;;;;4.22;2.72;;;;;;;;;;4989124;28;20199;-75
2022/08/27 03:14:15;;;;;;;3.88;2.78;;;;;;;;;;4994434;28;20171;-74
2022/08/27 03:16:40;;;;;;;5.25;2.53;;;;;;;;;;4992578;28;20546;-75
2022/08/27 03:19:06;;;;;;;3.38;2.30;;;;;;;;;;4993512;28;20561;-74
2022/08/27 03:21:32;;;;;;;3.75;2.60;;;;;;;;;;4991960;28;20176;-75
2022/08/27 03:24:00;;;;;;;3.53;2.63;;;;;;;;;;4992052;28;20638;-75
2022/08/27 03:26:26;;;;;;;4.18;2.70;;;;;;;;;;4990985;28;20246;-75
2022/08/27 03:28:52;;;;;;;4.65;3.20;;;;;;;;;;4993286;28;20183;-75
2022/08/27 03:31:25;;;;;;;4.88;2.60;;;;;;;;;;4993478;28;20175;-75
2022/08/27 03:33:51;;;;;;;4.18;2.83;;;;;;;;;;4992991;28;20176;-75
2022/08/27 03:36:16;;;;;;;4.18;2.42;;;;;;;;;;4990728;28;20250;-75
2022/08/27 03:38:41;;;;;;;5.10;2.65;;;;;;;;;;4993865;28;20504;-75
2022/08/27 03:41:07;;;;;;;4.82;2.67;;;;;;;;;;4989499;28;20278;-75
2022/08/27 03:43:32;;;;;;;3.50;3.10;;;;;;;;;;4991968;28;20235;-75
2022/08/27 03:45:57;;;;;;;4.57;2.78;;;;;;;;;;4993253;28;20218;-75
2022/08/27 03:48:22;;;;;;;6.03;2.83;;;;;;;;;;4996387;28;20230;-75
2022/08/27 03:50:49;;;;;;;7.50;3.00;;;;;;;;;;4994731;28;20779;-75
2022/08/27 03:53:14;;;;;;;6.60;3.33;;;;;;;;;;4995544;28;20250;-75
2022/08/27 03:55:41;;;;;;;4.75;3.00;;;;;;;;;;4993935;28;20180;-75
2022/08/27 03:58:06;;;;;;;4.95;2.70;;;;;;;;;;4990632;28;20266;-75
2022/08/27 04:00:32;;;;;;;7.35;3.85;;;;;;;;;;4993559;28;20259;-76
2022/08/27 04:02:57;;;;;;;4.28;3.20;;;;;;;;;;4986661;28;20218;-76
2022/08/27 04:05:22;;;;;;;4.90;3.40;;;;;;;;;;4992733;28;20186;-74
2022/08/27 04:07:48;;;;;;;4.22;3.65;;;;;;;;;;4991363;28;20203;-74
2022/08/27 04:10:13;;;;;;;6.18;3.08;;;;;;;;;;4988513;28;20180;-74
2022/08/27 04:12:39;;;;;;;4.22;3.35;;;;;;;;;;4990865;28;20495;-75
2022/08/27 04:15:05;;;;;;;6.28;3.28;;;;;;;;;;4992736;28;20214;-74
2022/08/27 04:17:30;;;;;;;4.32;3.40;;;;;;;;;;4988035;28;20278;-75
2022/08/27 04:19:56;;;;;;;7.07;4.38;;;;;;;;;;4990059;28;20179;-75
2022/08/27 04:22:22;;;;;;;4.65;3.00;;;;;;;;;;4992445;28;20499;-75
2022/08/27 04:24:47;;;;;;;6.90;3.80;;;;;;;;;;4991646;28;20184;-74
2022/08/27 04:27:14;;;;;;;5.68;3.70;;;;;;;;;;4991359;28;20203;-75
2022/08/27 04:29:39;;;;;;;3.78;3.22;;;;;;;;;;4991552;28;20172;-74
2022/08/27 04:32:05;;;;;;;4.22;3.33;;;;;;;;;;4991555;28;20246;-75
2022/08/27 04:34:30;;;;;;;5.78;3.70;;;;;;;;;;4987552;28;20237;-74
2022/08/27 04:36:56;;;;;;;3.97;3.22;;;;;;;;;;4988183;28;20649;-74
2022/08/27 04:39:21;;;;;;;3.95;3.30;;;;;;;;;;4989193;28;20179;-74
2022/08/27 04:41:50;;;;;;;3.35;3.00;;;;;;;;;;4988357;28;20254;-74
2022/08/27 04:44:15;;;;;;;5.97;3.42;;;;;;;;;;4990131;28;20257;-74
2022/08/27 04:46:40;;;;;;;5.82;3.15;;;;;;;;;;4990666;28;20210;-74
2022/08/27 04:49:10;;;;;;;4.35;3.70;;;;;;;;;;4988951;28;20270;-74
2022/08/27 04:51:36;;;;;;;4.88;3.42;;;;;;;;;;4988423;28;20184;-74
2022/08/27 04:54:02;;;;;;;4.95;4.00;;;;;;;;;;4991534;28;20716;-74
2022/08/27 04:56:28;;;;;;;3.55;3.25;;;;;;;;;;5000025;28;20187;-74
2022/08/27 04:58:53;;;;;;;4.72;3.38;;;;;;;;;;4995971;28;20198;-74
2022/08/27 05:01:19;;;;;;;7.20;3.88;;;;;;;;;;4994066;28;20560;-75
2022/08/27 05:03:44;;;;;;;5.75;3.80;;;;;;;;;;4993791;28;20215;-74
2022/08/27 05:06:11;;;;;;;3.92;3.53;;;;;;;;;;4995247;28;20208;-74
2022/08/27 05:08:36;;;;;;;6.32;3.72;;;;;;;;;;4989698;28;20183;-74
2022/08/27 05:11:01;;;;;;;7.65;4.30;;;;;;;;;;4993858;28;20183;-74
2022/08/27 05:13:27;;;;;;;7.63;4.40;;;;;;;;;;4991553;28;20195;-74
2022/08/27 05:16:00;;;;;;;5.47;4.32;;;;;;;;;;4991532;28;20206;-74
2022/08/27 05:18:26;;;;;;;5.05;4.15;;;;;;;;;;4992326;28;20214;-74
2022/08/27 05:20:51;;;;;;;7.90;4.13;;;;;;;;;;4990548;28;20668;-74
2022/08/27 05:23:17;;;;;;;7.75;5.57;;;;;;;;;;4992718;28;20203;-74
2022/08/27 05:25:44;;;;;;;8.45;5.45;;;;;;;;;;4992698;28;20207;-74
2022/08/27 05:28:10;;;;;;;7.43;6.00;;;;;;;;;;4994130;28;20180;-74
2022/08/27 05:30:36;;;;;;;6.70;5.18;;;;;;;;;;4997628;28;20557;-74
2022/08/27 05:33:01;;;;;;;8.02;5.22;;;;;;;;;;4987421;28;20196;-74
2022/08/27 05:35:27;;;;;;;5.45;4.32;;;;;;;;;;4997655;28;20189;-74
2022/08/27 05:37:53;;;;;;;6.57;4.82;;;;;;;;;;4991052;28;20187;-74
2022/08/27 05:40:18;;;;;;;8.45;5.72;;;;;;;;;;4993547;28;20638;-74
2022/08/27 05:42:43;;;;;;;6.28;4.55;;;;;;;;;;4993408;28;20195;-74
2022/08/27 05:45:08;;;;;;;5.32;4.82;;;;;;;;;;4992169;28;20259;-74
2022/08/27 05:47:34;;;;;;;6.38;4.78;;;;;;;;;;4995391;28;20203;-74
2022/08/27 05:49:59;;;;;;;5.45;4.57;;;;;;;;;;4996219;28;20186;-74
2022/08/27 05:52:24;;;;;;;7.47;4.40;;;;;;;;;;4990723;28;20341;-74
2022/08/27 05:54:49;;;;;;;7.22;4.90;;;;;;;;;;4989221;28;20172;-74
2022/08/27 05:57:14;;;;;;;4.70;4.10;;;;;;;;;;4992846;28;20179;-74
2022/08/27 06:02:24;;;;;;;6.40;4.15;;;;;;;;;;4983194;28;20261;-74
2022/08/27 06:04:49;;;;;;;3.95;3.50;;;;;;;;;;4991115;28;20205;-74
2022/08/27 06:07:15;;;;;;;5.82;3.47;;;;;;;;;;4989665;28;20688;-74
2022/08/27 06:09:40;;;;;;;5.38;4.03;;;;;;;;;;4990550;28;20645;-74
2022/08/27 06:12:06;;;;;;;4.43;4.10;;;;;;;;;;4989405;28;20217;-74
2022/08/27 06:14:31;;;;;;;6.57;4.30;;;;;;;;;;4991741;28;20180;-76
2022/08/27 06:16:58;;;;;;;7.55;4.05;;;;;;;;;;4989876;28;20642;-74
2022/08/27 06:19:23;;;;;;;5.82;4.00;;;;;;;;;;5004217;28;20187;-74
2022/08/27 06:21:49;;;;;;;9.10;4.50;;;;;;;;;;4990605;28;20681;-74
2022/08/27 06:24:14;;;;;;;4.30;3.90;;;;;;;;;;4991893;28;20180;-75
2022/08/27 06:26:41;;;;;;;5.20;4.18;;;;;;;;;;4990604;28;20199;-74
2022/08/27 06:29:07;;;;;;;5.93;3.78;;;;;;;;;;4991865;28;20539;-74
2022/08/27 06:31:34;;;;;;;5.32;3.50;;;;;;;;;;4991104;28;20207;-74
2022/08/27 06:34:00;;;;;;;5.60;3.67;;;;;;;;;;4990516;28;20211;-74
2022/08/27 06:36:26;;;;;;;6.20;3.67;;;;;;;;;;4990276;28;20187;-74
2022/08/27 06:38:51;;;;;;;5.32;3.28;;;;;;;;;;4990630;28;20188;-74
2022/08/27 06:41:18;;;;;;;7.70;4.72;;;;;;;;;;4989017;28;20574;-74
2022/08/27 06:43:44;;;;;;;6.00;3.63;;;;;;;;;;4989197;28;20266;-74
2022/08/27 06:46:11;;;;;;;4.68;3.50;;;;;;;;;;4995145;28;20753;-74
2022/08/27 06:48:37;;;;;;;4.75;3.72;;;;;;;;;;4994095;28;20641;-74
2022/08/27 06:51:09;;;;;;;4.43;3.97;;;;;;;;;;4990728;28;20187;-75
2022/08/27 06:53:35;;;;;;;5.47;4.30;;;;;;;;;;4994809;28;20278;-74
2022/08/27 06:56:00;;;;;;;4.43;4.03;;;;;;;;;;4993323;28;20268;-74
2022/08/27 06:58:25;;;;;;;4.25;3.83;;;;;;;;;;4993741;28;20717;-74
2022/08/27 07:00:50;;;;;;;7.20;4.20;;;;;;;;;;4992588;28;20234;-74
2022/08/27 07:03:15;;;;;;;7.35;4.00;;;;;;;;;;4985688;28;20217;-75
2022/08/27 07:05:41;;;;;;;4.70;3.60;;;;;;;;;;4992958;28;20214;-75
2022/08/27 07:08:07;;;;;;;4.35;3.95;;;;;;;;;;5007334;28;20238;-74
2022/08/27 07:10:33;;;;;;;4.38;3.53;;;;;;;;;;4992700;28;20257;-75
2022/08/27 07:12:58;;;;;;;4.95;3.85;;;;;;;;;;4994361;28;20241;-74
2022/08/27 07:15:24;;;;;;;5.05;3.80;;;;;;;;;;4995006;28;20215;-74
2022/08/27 07:17:50;;;;;;;5.50;4.35;;;;;;;;;;4993413;28;20191;-74
2022/08/27 07:20:15;;;;;;;6.00;4.00;;;;;;;;;;4992451;28;20175;-74
2022/08/27 07:22:41;;;;;;;3.60;3.30;;;;;;;;;;4992799;28;20202;-75
2022/08/27 07:25:08;;;;;;;5.22;4.03;;;;;;;;;;4992771;28;20577;-74
2022/08/27 07:27:34;;;;;;;3.85;3.08;;;;;;;;;;4990516;28;20206;-74
2022/08/27 07:29:59;;;;;;;5.28;3.50;;;;;;;;;;4991097;28;20172;-75
2022/08/27 07:32:24;;;;;;;3.75;3.40;;;;;;;;;;5000609;28;20198;-75
2022/08/27 07:34:49;;;;;;;5.28;3.55;;;;;;;;;;5001066;28;20215;-75
2022/08/27 07:37:15;;;;;;;5.20;3.20;;;;;;;;;;4999310;28;20175;-75
2022/08/27 07:39:40;;;;;;;4.05;2.80;;;;;;;;;;5000942;28;20209;-75
2022/08/27 07:44:49;;;;;;;3.85;2.50;;;;;;;;;;4999522;28;20206;-75
2022/08/27 07:47:14;;;;;;;5.07;2.20;;;;;;;;;;4998042;28;20203;-75
2022/08/27 07:49:39;;;;;;;4.53;2.20;;;;;;;;;;4994512;28;20417;-75
2022/08/27 07:52:05;;;;;;;2.43;2.00;;;;;;;;;;5002108;28;20669;-75
2022/08/27 07:54:30;;;;;;;3.97;2.20;;;;;;;;;;4995081;28;20520;-75
2022/08/27 07:56:55;;;;;;;3.93;1.80;;;;;;;;;;4993220;28;20218;-74
2022/08/27 07:59:20;;;;;;;5.78;2.20;;;;;;;;;;4994884;28;20433;-75
2022/08/27 08:01:47;;;;;;;3.80;1.90;;;;;;;;;;4987843;28;20203;-75
2022/08/27 08:04:13;;;;;;;2.78;1.70;;;;;;;;;;4983113;28;20295;-74
2022/08/27 08:06:38;;;;;;;3.00;1.77;;;;;;;;;;4992420;28;20318;-74
2022/08/27 08:09:04;;;;;;;3.10;1.90;;;;;;;;;;4992156;28;20600;-74
2022/08/27 08:11:29;;;;;;;3.03;1.48;;;;;;;;;;4991600;28;20191;-74
2022/08/27 08:13:54;;;;;;;3.47;1.70;;;;;;;;;;4990539;28;20176;-74
2022/08/27 08:16:22;;;;;;;2.92;1.77;;;;;;;;;;4993195;28;20233;-75
2022/08/27 08:18:47;;;;;;;2.33;1.70;;;;;;;;;;4990696;28;20176;-74
2022/08/27 08:21:13;;;;;;;2.42;1.70;;;;;;;;;;4992513;28;20176;-75
2022/08/27 08:23:39;;;;;;;2.90;1.45;;;;;;;;;;4992187;28;20777;-73
2022/08/27 08:26:05;;;;;;;3.28;1.48;;;;;;;;;;4992182;28;20273;-75
2022/08/27 08:28:30;;;;;;;2.88;1.50;;;;;;;;;;4993019;28;20175;-72
2022/08/27 08:30:56;;;;;;;1.85;1.33;;;;;;;;;;4996185;28;20183;-73
2022/08/27 08:33:21;;;;;;;3.92;2.05;;;;;;;;;;4992540;28;20210;-72
2022/08/27 08:35:50;;;;;;;4.13;1.80;;;;;;;;;;4998733;28;20658;-72
2022/08/27 08:38:16;;;;;;;2.47;1.40;;;;;;;;;;4994896;28;20645;-72
2022/08/27 08:40:44;;;;;;;2.72;1.67;;;;;;;;;;4981577;28;20183;-72
2022/08/27 08:43:17;;;;;;;3.65;1.70;;;;;;;;;;4991085;28;20207;-72
2022/08/27 08:45:44;;;;;;;3.53;1.50;;;;;;;;;;4990352;28;20267;-72
2022/08/27 08:48:11;;;;;;;2.22;1.40;;;;;;;;;;4993732;28;20219;-72
2022/08/27 08:50:43;;;;;;;3.67;1.05;;;;;;;;;;4991162;28;20561;-72
2022/08/27 08:53:10;;;;;;;3.05;1.35;;;;;;;;;;4997262;28;20203;-74
2022/08/27 08:55:40;;;;;;;1.83;1.10;;;;;;;;;;4989504;28;20180;-72
2022/08/27 08:58:08;;;;;;;1.80;1.00;;;;;;;;;;4996373;28;20563;-73
2022/08/27 09:00:35;;;;;;;4.93;1.40;;;;;;;;;;5001429;28;20183;-74
2022/08/27 09:03:00;;;;;;;2.03;0.82;;;;;;;;;;4992850;28;20222;-75
2022/08/27 09:05:25;;;;;;;3.33;1.08;;;;;;;;;;4994304;28;20179;-74
2022/08/27 09:08:01;;;;;;;2.77;1.10;;;;;;;;;;4993101;28;20207;-74
2022/08/27 09:10:32;;;;;;;1.60;0.90;;;;;;;;;;4992602;28;20484;-74
2022/08/27 09:13:00;;;;;;;2.65;1.02;;;;;;;;;;4990997;28;20673;-74
2022/08/27 09:15:27;;;;;;;2.03;0.90;;;;;;;;;;4987000;28;20208;-74
2022/08/27 09:18:02;;;;;;;1.92;0.95;;;;;;;;;;4996588;28;20180;-74
2022/08/27 09:20:30;;;;;;;3.42;1.10;;;;;;;;;;4987955;28;20207;-74
2022/08/27 09:23:30;;;;;;;1.45;0.80;;;;;;;;;;4990437;28;20206;-74
2022/08/27 09:25:56;;;;;;;2.60;0.70;;;;;;;;;;4907811;28;20729;-74
2022/08/27 09:31:28;;;;;;;2.45;0.85;;;;;;;;;;4990085;28;20233;-75
2022/08/27 09:33:53;;;;;;;1.92;0.88;;;;;;;;;;5002253;28;20183;-74
2022/08/27 09:36:19;;;;;;;2.30;0.70;;;;;;;;;;4987710;28;20192;-74
2022/08/27 09:38:52;;;;;;;1.67;0.93;;;;;;;;;;4990890;28;20974;-74
2022/08/27 09:41:21;;;;;;;1.58;0.85;;;;;;;;;;4984140;28;20464;-75
2022/08/27 09:43:55;;;;;;;1.90;0.85;;;;;;;;;;4992403;28;20188;-74
2022/08/27 09:46:21;;;;;;;1.30;0.88;;;;;;;;;;4991582;28;20207;-74
2022/08/27 09:48:47;;;;;;;1.50;0.90;;;;;;;;;;4986818;28;20199;-74
2022/08/27 09:51:13;;;;;;;2.15;1.00;;;;;;;;;;4992416;28;20634;-74
2022/08/27 09:53:43;;;;;;;1.30;0.98;;;;;;;;;;4998262;28;20278;-74
2022/08/27 09:56:09;;;;;;;2.25;1.00;;;;;;;;;;4988221;28;20175;-74
2022/08/27 09:58:48;;;;;;;2.15;0.82;;;;;;;;;;4989650;28;20720;-73
2022/08/27 10:01:17;;;;;;;2.03;1.27;;;;;;;;;;4990688;28;20233;-75
2022/08/27 10:03:42;;;;;;;2.33;0.95;;;;;;;;;;4979075;28;20238;-74
2022/08/27 10:06:08;;;;;;;1.13;0.75;;;;;;;;;;4988440;28;20274;-74
2022/08/27 10:08:39;;;;;;;2.58;0.80;;;;;;;;;;4999548;28;20649;-74
2022/08/27 10:11:24;;;;;;;0.70;0.60;;;;;;;;;;4988580;28;20180;-74
2022/08/27 10:13:50;;;;;;;2.78;0.93;;;;;;;;;;4992414;28;20650;-75
2022/08/27 10:16:15;;;;;;;1.63;0.70;;;;;;;;;;4993558;28;20851;-74
2022/08/27 10:19:00;;;;;;;1.05;0.80;;;;;;;;;;4997879;28;20571;-74
2022/08/27 10:21:32;;;;;;;1.95;0.90;;;;;;;;;;4993388;28;20187;-74
2022/08/27 10:23:57;;;;;;;1.88;0.75;;;;;;;;;;4989171;28;20183;-74
2022/08/27 10:26:29;;;;;;;1.80;0.90;;;;;;;;;;4984466;28;20196;-74
2022/08/27 10:29:05;;;;;;;2.97;0.90;;;;;;;;;;4989287;28;20657;-75
2022/08/27 10:31:37;;;;;;;2.33;0.98;;;;;;;;;;4990977;28;20176;-74
2022/08/27 10:34:10;;;;;;;4.38;1.60;;;;;;;;;;4996438;28;20179;-75
2022/08/27 10:36:55;;;;;;;2.97;1.10;;;;;;;;;;4997462;28;20188;-75
2022/08/27 10:39:39;;;;;;;2.33;0.82;;;;;;;;;;4996638;28;20199;-74
2022/08/27 10:42:14;;;;;;;3.15;0.98;;;;;;;;;;4999032;28;20688;-74
2022/08/27 10:44:57;;;;;;;2.25;0.80;;;;;;;;;;4995462;28;20192;-74
2022/08/27 10:47:38;;;;;;;3.38;0.93;;;;;;;;;;4992870;28;20203;-74
2022/08/27 10:50:10;;;;;;;1.33;0.90;;;;;;;;;;4991047;28;20637;-74
2022/08/27 10:52:36;;;;;;;2.67;0.88;;;;;;;;;;4994294;28;20199;-74
2022/08/27 10:55:12;;;;;;;3.03;1.05;;;;;;;;;;4993828;28;20222;-74
2022/08/27 10:57:43;;;;;;;1.58;0.85;;;;;;;;;;4994677;28;20677;-74
2022/08/27 11:00:12;;;;;;;2.35;1.08;;;;;;;;;;4994678;28;20191;-76
2022/08/27 11:02:41;;;;;;;2.40;0.90;;;;;;;;;;5017545;23;20699;-68
2022/08/27 11:05:13;;;;;;;2.42;0.90;;;;;;;;;;5007722;28;20183;-68
2022/08/27 11:07:44;;;;;;;5.00;1.20;;;;;;;;;;5026559;28;20316;-69
2022/08/27 11:10:19;;;;;;;2.78;1.00;;;;;;;;;;5011283;28;20179;-69
2022/08/27 11:12:46;;;;;;;1.90;1.17;;;;;;;;;;5009268;28;20558;-69
2022/08/27 11:15:11;;;;;;;3.10;1.20;;;;;;;;;;5009154;28;20171;-69
2022/08/27 11:17:39;;;;;;;3.17;0.98;;;;;;;;;;5009208;28;20194;-69
2022/08/27 11:20:08;;;;;;;3.28;1.15;;;;;;;;;;5011089;28;20234;-69
2022/08/27 11:22:43;;;;;;;3.78;1.30;;;;;;;;;;5008686;28;20199;-68
2022/08/27 11:25:20;;;;;;;2.55;0.98;;;;;;;;;;5010874;28;20187;-68
2022/08/27 11:27:47;;;;;;;3.08;1.10;;;;;;;;;;5005799;28;20206;-68
2022/08/27 11:30:24;;;;;;;2.63;1.42;;;;;;;;;;5006288;28;20685;-68
2022/08/27 11:33:05;;;;;;;3.20;0.93;;;;;;;;;;5007118;28;20681;-69
2022/08/27 11:35:30;;;;;;;3.53;0.95;;;;;;;;;;5006640;28;20179;-68
2022/08/27 11:37:58;;;;;;;1.90;0.90;;;;;;;;;;5007265;28;20197;-68
2022/08/27 11:40:29;;;;;;;1.95;0.88;;;;;;;;;;5009120;28;20190;-69
2022/08/27 11:43:06;;;;;;;3.17;0.90;;;;;;;;;;5000228;28;20202;-69
2022/08/27 11:45:37;;;;;;;2.25;1.00;;;;;;;;;;5009719;28;20261;-69
2022/08/27 11:48:13;;;;;;;1.27;0.63;;;;;;;;;;5015273;28;20209;-69
2022/08/27 11:50:39;;;;;;;3.30;1.15;;;;;;;;;;5009978;28;20198;-69
2022/08/27 11:53:05;;;;;;;1.58;0.90;;;;;;;;;;5007801;28;20210;-69
2022/08/27 11:55:35;;;;;;;2.78;0.73;;;;;;;;;;5015437;28;20189;-69
2022/08/27 11:58:06;;;;;;;5.30;0.90;;;;;;;;;;5010688;28;20182;-69
2022/08/27 12:00:32;;;;;;;3.90;0.80;;;;;;;;;;5010112;28;20566;-69
2022/08/27 12:03:07;;;;;;;3.22;0.95;;;;;;;;;;5013030;28;20244;-69
2022/08/27 12:05:33;;;;;;;3.33;0.70;;;;;;;;;;5010843;28;20179;-69
2022/08/27 12:08:10;;;;;;;2.45;0.82;;;;;;;;;;5006869;28;20234;-68
2022/08/27 12:10:50;;;;;;;2.15;0.80;;;;;;;;;;5010515;28;20183;-69
2022/08/27 12:13:28;;;;;;;2.50;0.77;;;;;;;;;;5010146;28;20688;-70
2022/08/27 12:16:00;;;;;;;2.95;0.70;;;;;;;;;;5006443;28;20250;-69
2022/08/27 12:18:44;;;;;;;2.35;0.70;;;;;;;;;;5008635;28;20190;-69
2022/08/27 12:21:23;;;;;;;2.38;0.60;;;;;;;;;;5008959;28;20535;-69
2022/08/27 12:23:49;;;;;;;3.22;1.30;;;;;;;;;;5010087;28;20259;-69
2022/08/27 12:26:18;;;;;;;2.33;0.90;;;;;;;;;;5009684;28;20430;-69
2022/08/27 12:28:43;;;;;;;2.67;0.70;;;;;;;;;;5006411;28;20183;-69
2022/08/27 12:31:08;;;;;;;2.38;0.90;;;;;;;;;;5010677;28;20621;-69
2022/08/27 12:33:46;;;;;;;1.17;0.67;;;;;;;;;;5009663;28;20210;-69
2022/08/27 12:36:15;;;;;;;1.58;0.93;;;;;;;;;;5004872;28;20519;-69
2022/08/27 12:38:46;;;;;;;2.42;0.60;;;;;;;;;;5011874;28;20182;-69
2022/08/27 12:41:22;;;;;;;2.25;0.70;;;;;;;;;;5008451;28;20193;-71
2022/08/27 12:43:47;;;;;;;3.55;0.93;;;;;;;;;;5005643;28;20197;-69
2022/08/27 12:46:14;;;;;;;1.73;0.60;;;;;;;;;;5005262;28;20179;-69
2022/08/27 12:48:41;;;;;;;2.30;0.60;;;;;;;;;;5009262;28;20233;-69
2022/08/27 12:51:15;;;;;;;3.40;0.70;;;;;;;;;;5009287;28;20265;-69
2022/08/27 12:53:44;;;;;;;1.90;0.60;;;;;;;;;;5010240;28;20330;-69
2022/08/27 12:56:09;;;;;;;1.42;0.60;;;;;;;;;;5003071;28;20185;-69
2022/08/27 12:58:43;;;;;;;3.50;0.83;;;;;;;;;;5009092;28;20179;-70
2022/08/27 13:01:19;;;;;;;1.88;0.63;;;;;;;;;;5006652;28;20182;-69
2022/08/27 13:03:49;;;;;;;2.85;1.35;;;;;;;;;;5003489;28;20428;-69
2022/08/27 13:06:26;;;;;;;3.30;0.90;;;;;;;;;;5010859;28;20640;-69
2022/08/27 13:08:52;;;;;;;2.25;0.93;;;;;;;;;;5006333;28;20202;-69
2022/08/27 13:11:23;;;;;;;1.17;0.60;;;;;;;;;;5010979;28;20198;-69
2022/08/27 13:13:49;;;;;;;1.27;0.68;;;;;;;;;;5006060;28;20680;-69
2022/08/27 13:16:18;;;;;;;2.80;0.98;;;;;;;;;;5005903;28;20459;-70
2022/08/27 13:18:48;;;;;;;3.83;0.88;;;;;;;;;;5007018;28;20605;-67
2022/08/27 13:21:31;;;;;;;4.93;1.35;;;;;;;;;;5001914;28;20467;-69
2022/08/27 13:24:01;;;;;;;2.45;0.70;;;;;;;;;;5007594;28;20222;-69
2022/08/27 13:26:30;;;;;;;5.55;1.05;;;;;;;;;;5007939;28;20207;-70
2022/08/27 13:28:55;;;;;;;2.75;0.80;;;;;;;;;;5006268;28;20177;-69
2022/08/27 13:31:22;;;;;;;1.70;0.65;;;;;;;;;;5011163;28;20183;-69
2022/08/27 13:33:48;;;;;;;3.50;0.60;;;;;;;;;;5011865;28;20639;-69
2022/08/27 13:36:24;;;;;;;3.70;0.77;;;;;;;;;;5013186;28;20258;-69
2022/08/27 13:38:49;;;;;;;2.10;0.40;;;;;;;;;;5004986;28;20186;-70
2022/08/27 13:41:27;;;;;;;2.03;0.80;;;;;;;;;;5007546;28;20309;-69
2022/08/27 13:43:52;;;;;;;1.42;0.70;;;;;;;;;;5000414;28;20202;-69
2022/08/27 13:46:19;;;;;;;2.35;0.77;;;;;;;;;;5009351;28;20171;-69
2022/08/27 13:48:46;;;;;;;2.53;0.90;;;;;;;;;;5007290;28;20182;-68
2022/08/27 13:51:12;;;;;;;1.55;0.70;;;;;;;;;;5006277;28;20187;-68
2022/08/27 13:56:30;;;;;;;2.10;0.70;;;;;;;;;;5006228;28;20201;-70
2022/08/27 13:59:06;;;;;;;1.35;0.52;;;;;;;;;;5007905;28;20179;-69
2022/08/27 14:01:31;;;;;;;1.88;0.88;;;;;;;;;;5014651;28;20624;-69
2022/08/27 14:04:04;;;;;;;3.23;0.80;;;;;;;;;;5009866;28;20906;-70
2022/08/27 14:06:39;;;;;;;2.75;0.95;;;;;;;;;;5013262;28;20831;-69
2022/08/27 14:09:16;;;;;;;0.75;0.63;;;;;;;;;;5010832;28;20209;-68
2022/08/27 14:11:42;;;;;;;2.08;0.70;;;;;;;;;;5014620;28;20170;-69
2022/08/27 14:14:07;;;;;;;1.90;0.77;;;;;;;;;;5013493;28;20624;-70
2022/08/27 14:16:33;;;;;;;2.60;0.52;;;;;;;;;;5014709;28;20201;-69
2022/08/27 14:19:04;;;;;;;3.22;0.85;;;;;;;;;;5009520;28;20179;-68
2022/08/27 14:21:29;;;;;;;2.65;0.80;;;;;;;;;;5010878;28;20225;-70
2022/08/27 14:23:55;;;;;;;1.50;0.55;;;;;;;;;;5011154;28;20210;-69
2022/08/27 14:26:20;;;;;;;2.35;0.60;;;;;;;;;;5014047;28;20211;-70
2022/08/27 14:28:46;;;;;;;5.43;0.98;;;;;;;;;;5014011;28;20204;-72
2022/08/27 14:31:12;;;;;;;2.47;0.70;;;;;;;;;;5015556;28;20174;-69
2022/08/27 14:33:37;;;;;;;0.88;0.50;;;;;;;;;;5018103;28;20207;-69
2022/08/27 14:36:02;;;;;;;1.38;0.70;;;;;;;;;;5011935;28;20175;-69
2022/08/27 14:38:30;;;;;;;3.80;0.95;;;;;;;;;;5014248;28;20179;-69
2022/08/27 14:40:57;;;;;;;3.47;0.77;;;;;;;;;;5014145;28;20550;-69
2022/08/27 14:43:23;;;;;;;2.00;0.80;;;;;;;;;;5012273;28;20203;-67
2022/08/27 14:45:49;;;;;;;1.45;0.73;;;;;;;;;;5015524;28;20265;-69
2022/08/27 14:48:18;;;;;;;3.13;1.00;;;;;;;;;;5013232;28;20260;-68
2022/08/27 14:50:43;;;;;;;2.17;1.02;;;;;;;;;;5010433;28;20546;-68
2022/08/27 14:53:09;;;;;;;2.25;0.68;;;;;;;;;;5009531;28;20199;-68
2022/08/27 14:55:34;;;;;;;1.45;0.77;;;;;;;;;;5016258;28;20595;-68
2022/08/27 14:57:59;;;;;;;2.72;0.70;;;;;;;;;;5011820;28;20183;-68